Time;durP1;ratioP1;P1;durP2;ratioP2;P2;SDS_P1;SDS_P2;PMS_P1;PMS_P2;Temp;Humidity;BMP_temperature;BMP_pressure;BME280_temperature;BME280_humidity;BME280_pressure;Samples;Min_cycle;Max_cycle;Signal;HPM_P1;HPM_P2
2023/07/28 00:00:42;;;;;;;13.68;4.50;;;;;;;13.32;96.98;95502.13;2091347;28;20056;-57
2023/07/28 00:01:43;;;;;;;6.45;4.38;;;;;;;13.30;96.60;95496.16;2091443;28;20045;-57
2023/07/28 00:02:44;;;;;;;7.55;4.18;;;;;;;13.29;96.75;95497.13;2091381;28;20053;-57
2023/07/28 00:03:46;;;;;;;7.68;4.88;;;;;;;13.25;96.91;95491.22;2091338;28;20044;-57
2023/07/28 00:04:47;;;;;;;10.13;4.90;;;;;;;13.16;97.55;95470.97;2091571;28;20491;-57
2023/07/28 00:05:49;;;;;;;5.82;3.95;;;;;;;13.31;97.37;95495.25;2091004;28;20053;-57
2023/07/28 00:06:50;;;;;;;7.50;5.05;;;;;;;13.24;97.69;95486.13;2091331;28;20048;-57
2023/07/28 00:07:52;;;;;;;10.38;4.90;;;;;;;13.28;97.50;95498.03;2091531;28;20381;-57
2023/07/28 00:08:53;;;;;;;8.93;4.65;;;;;;;13.25;97.33;95486.00;2091306;28;20055;-57
2023/07/28 00:09:54;;;;;;;6.78;4.72;;;;;;;13.24;97.54;95488.72;2091262;28;20060;-57
2023/07/28 00:10:56;;;;;;;8.10;4.60;;;;;;;13.23;97.78;95481.81;2091554;28;20068;-57
2023/07/28 00:11:57;;;;;;;7.00;5.03;;;;;;;13.15;97.84;95476.28;2091765;28;20045;-57
2023/07/28 00:12:59;;;;;;;6.53;5.20;;;;;;;13.23;98.06;95484.44;2091427;28;20452;-57
2023/07/28 00:14:00;;;;;;;7.05;4.80;;;;;;;13.22;98.10;95486.19;2091445;28;20052;-57
2023/07/28 00:15:01;;;;;;;6.80;4.55;;;;;;;13.18;97.97;95486.53;2091346;28;20036;-57
2023/07/28 00:16:02;;;;;;;9.18;4.88;;;;;;;13.20;98.32;95489.84;2091368;28;20041;-57
2023/07/28 00:17:03;;;;;;;7.72;5.15;;;;;;;13.18;98.02;95492.56;2091321;28;20057;-57
2023/07/28 00:18:04;;;;;;;9.35;4.95;;;;;;;13.16;98.50;95486.63;2091446;28;20491;-57
2023/07/28 00:19:05;;;;;;;8.38;5.15;;;;;;;13.03;97.98;95468.31;2091317;28;20056;-57
2023/07/28 00:20:07;;;;;;;6.93;5.20;;;;;;;13.17;98.50;95492.66;2091276;28;20045;-57
2023/07/28 00:21:08;;;;;;;7.45;5.30;;;;;;;13.13;98.54;95483.38;2091415;28;20068;-57
2023/07/28 00:22:09;;;;;;;7.63;5.30;;;;;;;13.11;98.37;95483.47;2091270;28;20056;-57
2023/07/28 00:23:11;;;;;;;9.15;5.88;;;;;;;13.14;98.42;95485.88;2091161;28;20064;-57
2023/07/28 00:24:12;;;;;;;7.88;4.82;;;;;;;13.13;98.66;95489.44;2091189;28;20068;-57
2023/07/28 00:25:13;;;;;;;7.40;5.40;;;;;;;13.10;98.64;95478.38;2091314;28;20072;-57
2023/07/28 00:26:14;;;;;;;9.52;6.07;;;;;;;13.08;98.55;95480.25;2091209;28;20053;-57
2023/07/28 00:27:15;;;;;;;7.28;5.40;;;;;;;13.07;98.35;95484.63;2091247;28;20057;-57
2023/07/28 00:28:16;;;;;;;7.32;4.93;;;;;;;13.07;98.37;95486.38;2091100;28;20053;-57
2023/07/28 00:29:17;;;;;;;8.18;5.25;;;;;;;13.05;98.42;95486.50;2091092;28;20049;-57
2023/07/28 00:30:18;;;;;;;8.05;4.88;;;;;;;13.03;98.24;95485.75;2091216;28;20048;-57
2023/07/28 00:31:19;;;;;;;7.60;4.90;;;;;;;13.01;98.40;95483.22;2090147;28;20111;-57
2023/07/28 00:32:21;;;;;;;6.15;4.88;;;;;;;12.98;98.52;95483.44;2082424;28;20053;-57
2023/07/28 00:33:22;;;;;;;7.05;5.00;;;;;;;12.98;98.95;95486.03;2090992;28;20460;-57
2023/07/28 00:34:23;;;;;;;9.75;5.50;;;;;;;12.86;98.63;95471.22;2090679;28;20055;-57
2023/07/28 00:35:25;;;;;;;7.78;4.78;;;;;;;12.96;98.33;95487.94;2091121;28;20448;-57
2023/07/28 00:36:27;;;;;;;8.50;5.60;;;;;;;12.96;98.48;95487.06;2082542;28;20065;-57
2023/07/28 00:37:28;;;;;;;8.45;5.30;;;;;;;12.83;98.38;95468.81;2082265;28;20524;-57
2023/07/28 00:38:29;;;;;;;6.90;4.38;;;;;;;12.84;98.29;95469.63;2091071;28;20052;-57
2023/07/28 00:39:31;;;;;;;9.38;5.65;;;;;;;12.90;98.48;95477.03;2091252;28;20045;-57
2023/07/28 00:40:32;;;;;;;8.43;5.50;;;;;;;12.88;98.40;95476.31;2091201;28;20045;-57
2023/07/28 00:41:33;;;;;;;8.25;5.68;;;;;;;12.86;98.43;95476.41;2091064;28;20044;-57
2023/07/28 00:42:34;;;;;;;9.00;5.47;;;;;;;12.84;98.42;95478.28;2091105;28;20056;-57
2023/07/28 00:43:35;;;;;;;8.13;5.57;;;;;;;12.84;98.79;95477.44;2091308;28;20405;-57
2023/07/28 00:44:36;;;;;;;7.38;4.90;;;;;;;12.82;98.57;95477.53;2082163;28;20053;-57
2023/07/28 00:45:38;;;;;;;8.02;5.65;;;;;;;12.82;98.66;95479.31;2082119;28;20049;-57
2023/07/28 00:46:39;;;;;;;8.30;5.20;;;;;;;12.81;98.69;95481.09;2089938;28;20531;-57
2023/07/28 00:47:40;;;;;;;7.35;4.95;;;;;;;12.80;98.91;95475.03;2082168;28;20053;-57
2023/07/28 00:48:41;;;;;;;7.97;5.07;;;;;;;12.80;98.68;95484.59;2090610;28;20056;-57
2023/07/28 00:49:42;;;;;;;7.97;5.00;;;;;;;12.81;98.65;95481.09;2090554;28;20047;-57
2023/07/28 00:50:47;;;;;;;10.65;5.30;;;;;;;12.79;98.77;95483.78;2082201;28;20104;-57
2023/07/28 00:51:49;;;;;;;7.18;4.75;;;;;;;12.77;98.55;95484.81;2090402;28;20041;-57
2023/07/28 00:52:50;;;;;;;6.30;4.47;;;;;;;12.78;98.83;95479.50;2090392;28;20374;-57
2023/07/28 00:53:53;;;;;;;8.18;4.70;;;;;;;12.80;98.63;95484.59;2082204;28;20057;-56
2023/07/28 00:54:54;;;;;;;6.18;4.60;;;;;;;12.78;98.70;95484.72;2082569;28;20049;-57
2023/07/28 00:55:55;;;;;;;9.57;4.95;;;;;;;12.80;98.84;95490.69;2082323;28;20053;-57
2023/07/28 00:56:56;;;;;;;8.40;4.80;;;;;;;12.79;98.48;95485.56;2090027;28;20049;-57
2023/07/28 00:57:58;;;;;;;6.65;4.72;;;;;;;12.73;98.86;95478.13;2090659;28;20048;-56
2023/07/28 00:59:00;;;;;;;7.15;4.85;;;;;;;12.79;98.62;95480.34;2089990;28;20060;-57
2023/07/28 01:00:01;;;;;;;5.97;4.50;;;;;;;12.82;98.42;95485.34;2090328;28;20048;-57
2023/07/28 01:01:02;;;;;;;6.90;5.15;;;;;;;12.81;98.90;95494.13;2082687;28;20053;-57
2023/07/28 01:02:03;;;;;;;6.45;4.43;;;;;;;12.79;98.64;95490.75;2090219;28;20057;-56
2023/07/28 01:03:04;;;;;;;7.13;4.65;;;;;;;12.77;98.49;95480.44;2082106;28;20050;-57
2023/07/28 01:04:05;;;;;;;8.63;4.38;;;;;;;12.77;98.05;95485.63;2081578;28;20053;-57
2023/07/28 01:05:07;;;;;;;8.45;4.30;;;;;;;12.77;98.47;95487.41;2098233;28;20061;-55
2023/07/28 01:06:26;;;;;;;7.60;4.32;;;;;;;12.68;98.15;95481.03;2090537;28;20053;-57
2023/07/28 01:07:37;;;;;;;7.97;5.40;;;;;;;12.72;98.32;95485.13;2091271;28;20060;-57
2023/07/28 01:08:58;;;;;;;6.53;4.55;;;;;;;12.72;98.33;95489.47;2090419;28;20500;-57
2023/07/28 01:10:05;;;;;;;7.55;4.28;;;;;;;12.71;98.31;95480.81;2090236;28;20051;-57
2023/07/28 01:11:06;;;;;;;8.05;4.65;;;;;;;12.69;98.09;95482.69;2075018;28;20053;-56
2023/07/28 01:12:11;;;;;;;8.07;4.90;;;;;;;12.71;98.27;95490.41;2082430;28;20434;-57
2023/07/28 01:13:12;;;;;;;6.88;5.05;;;;;;;12.70;98.09;95486.97;2089851;28;20524;-57
2023/07/28 01:14:13;;;;;;;7.63;4.70;;;;;;;12.70;98.19;95488.75;2089598;28;20516;-57
2023/07/28 01:15:14;;;;;;;7.22;4.63;;;;;;;12.69;97.67;95484.47;2090603;28;20060;-57
2023/07/28 01:16:16;;;;;;;5.93;4.50;;;;;;;12.71;97.22;95482.59;2090831;28;20053;-57
2023/07/28 01:17:18;;;;;;;7.20;4.10;;;;;;;12.67;97.31;95473.28;2090395;28;20049;-57
2023/07/28 01:18:19;;;;;;;7.47;4.10;;;;;;;12.74;96.39;95492.81;2089865;28;20059;-57
2023/07/28 01:19:20;;;;;;;5.72;4.43;;;;;;;12.72;96.53;95486.88;2090171;28;20041;-57
2023/07/28 01:20:23;;;;;;;6.45;4.82;;;;;;;12.75;95.81;95487.53;2090956;28;20041;-57
2023/07/28 01:21:27;;;;;;;5.35;4.13;;;;;;;12.75;95.50;95484.06;2081953;28;20433;-57
2023/07/28 01:22:42;;;;;;;13.18;5.22;;;;;;;12.68;96.02;95482.81;2082869;28;20058;-57
2023/07/28 01:23:59;;;;;;;6.68;4.45;;;;;;;12.61;95.80;95471.09;2089633;28;20049;-57
2023/07/28 01:25:19;;;;;;;5.72;4.20;;;;;;;12.68;95.77;95482.81;2067641;28;20042;-57
2023/07/28 01:26:32;;;;;;;7.55;4.68;;;;;;;12.63;96.26;95483.09;2078541;28;20052;-57
2023/07/28 01:27:34;;;;;;;8.48;4.43;;;;;;;12.54;95.59;95481.91;2091057;28;20056;-57
2023/07/28 01:28:35;;;;;;;7.22;4.50;;;;;;;12.48;96.08;95479.69;2089492;28;20045;-57
2023/07/28 01:29:36;;;;;;;8.70;4.80;;;;;;;12.55;95.75;95487.94;2081923;28;20037;-57
2023/07/28 01:30:37;;;;;;;6.50;4.32;;;;;;;12.55;96.19;95490.56;2090441;28;20536;-57
2023/07/28 01:31:39;;;;;;;7.15;4.60;;;;;;;12.42;95.87;95474.03;2090410;28;20049;-57
2023/07/28 01:32:40;;;;;;;7.80;4.65;;;;;;;12.49;95.78;95483.97;2082486;28;20049;-57
2023/07/28 01:33:41;;;;;;;7.38;4.53;;;;;;;12.48;95.68;95486.66;2081872;28;20041;-57
2023/07/28 01:34:42;;;;;;;7.32;4.65;;;;;;;12.41;95.78;95481.00;2089809;28;20048;-57
2023/07/28 01:35:43;;;;;;;6.93;4.72;;;;;;;12.32;96.42;95468.53;2089719;28;20432;-57
2023/07/28 01:36:44;;;;;;;9.93;5.22;;;;;;;12.40;95.95;95489.72;2091061;28;20429;-57
2023/07/28 01:37:50;;;;;;;6.90;4.45;;;;;;;12.38;96.02;95481.19;2090757;28;20060;-57
2023/07/28 01:38:51;;;;;;;5.75;4.30;;;;;;;12.36;96.03;95485.66;2090704;28;20059;-57
2023/07/28 01:39:52;;;;;;;6.10;4.43;;;;;;;12.39;95.94;95487.25;2090841;28;20495;-57
2023/07/28 01:40:53;;;;;;;6.43;4.30;;;;;;;12.34;95.88;95490.94;2090884;28;20052;-57
2023/07/28 01:41:54;;;;;;;6.03;4.53;;;;;;;12.31;96.13;95485.94;2090662;28;20060;-57
2023/07/28 01:42:56;;;;;;;10.38;4.80;;;;;;;12.31;96.03;95490.31;2090798;28;20040;-57
2023/07/28 01:43:57;;;;;;;8.23;4.57;;;;;;;12.22;96.38;95475.28;2090688;28;20053;-57
2023/07/28 01:44:58;;;;;;;8.73;4.25;;;;;;;12.27;96.58;95487.06;2088954;28;20056;-57
2023/07/28 01:45:59;;;;;;;8.63;5.57;;;;;;;12.24;96.15;95468.19;2090046;28;20535;-57
2023/07/28 01:47:00;;;;;;;5.57;4.00;;;;;;;12.30;96.03;95478.25;2081948;28;20045;-57
2023/07/28 01:48:01;;;;;;;8.57;4.40;;;;;;;12.28;95.91;95480.09;2082004;28;20057;-57
2023/07/28 01:49:02;;;;;;;6.40;4.57;;;;;;;12.30;96.05;95473.88;2090957;28;20056;-57
2023/07/28 01:50:04;;;;;;;5.90;4.15;;;;;;;12.31;96.05;95475.53;2090723;28;20059;-57
2023/07/28 01:51:05;;;;;;;6.43;4.35;;;;;;;12.29;96.35;95476.56;2089509;28;20052;-57
2023/07/28 01:52:06;;;;;;;7.13;4.30;;;;;;;12.26;96.36;95471.53;2089589;28;20053;-57
2023/07/28 01:53:07;;;;;;;7.47;4.22;;;;;;;12.20;95.93;95464.13;2090201;28;20448;-57
2023/07/28 01:54:08;;;;;;;7.68;4.60;;;;;;;12.23;95.98;95469.97;2089630;28;20060;-57
2023/07/28 01:55:09;;;;;;;8.50;4.43;;;;;;;12.21;96.20;95470.97;2089940;28;20052;-57
2023/07/28 01:56:10;;;;;;;7.22;4.60;;;;;;;12.18;96.16;95474.63;2090534;28;20044;-57
2023/07/28 01:57:11;;;;;;;5.97;4.05;;;;;;;12.18;95.75;95474.63;2089692;28;20049;-57
2023/07/28 01:58:13;;;;;;;8.32;4.65;;;;;;;12.19;95.92;95484.13;2090063;28;20396;-56
2023/07/28 01:59:14;;;;;;;6.40;4.00;;;;;;;12.19;95.93;95475.44;2082306;28;20046;-57
2023/07/28 02:00:15;;;;;;;6.32;4.72;;;;;;;12.16;95.88;95479.06;2081378;28;20069;-57
2023/07/28 02:01:16;;;;;;;7.28;4.93;;;;;;;12.14;96.00;95480.94;2089686;28;20044;-58
2023/07/28 02:02:17;;;;;;;7.38;4.47;;;;;;;12.10;95.76;95480.28;2089839;28;20057;-57
2023/07/28 02:03:18;;;;;;;7.00;4.65;;;;;;;12.11;96.30;95484.59;2089549;28;20064;-57
2023/07/28 02:04:19;;;;;;;6.35;4.70;;;;;;;12.13;96.20;95485.34;2089534;28;20053;-57
2023/07/28 02:05:21;;;;;;;6.20;4.32;;;;;;;12.08;95.97;95473.50;2089497;28;20408;-57
2023/07/28 02:06:22;;;;;;;6.35;4.55;;;;;;;12.08;96.42;95468.28;2089491;28;20052;-57
2023/07/28 02:07:24;;;;;;;8.40;4.68;;;;;;;12.13;96.26;95485.34;2089208;28;20048;-58
2023/07/28 02:08:25;;;;;;;5.97;4.47;;;;;;;12.12;96.20;95483.63;2088781;28;20063;-57
2023/07/28 02:09:26;;;;;;;8.98;5.03;;;;;;;12.14;96.56;95484.38;2089751;28;20044;-58
2023/07/28 02:10:28;;;;;;;7.22;4.60;;;;;;;12.12;96.30;95486.25;2089472;28;20707;-57
2023/07/28 02:11:29;;;;;;;6.13;4.57;;;;;;;12.12;96.14;95480.22;2089893;28;20495;-56
2023/07/28 02:12:30;;;;;;;8.15;5.13;;;;;;;12.14;96.09;95491.38;2089401;28;20057;-57
2023/07/28 02:13:31;;;;;;;8.10;4.57;;;;;;;12.13;95.93;95485.34;2081837;28;20060;-57
2023/07/28 02:14:32;;;;;;;7.88;4.88;;;;;;;12.11;96.17;95489.78;2089418;28;20059;-57
2023/07/28 02:15:33;;;;;;;5.72;4.20;;;;;;;12.11;96.01;95484.59;2088454;28;20082;-57
2023/07/28 02:16:35;;;;;;;8.20;4.90;;;;;;;12.11;96.44;95489.78;2089635;28;20140;-57
2023/07/28 02:17:36;;;;;;;6.18;4.47;;;;;;;12.10;96.33;95485.50;2081585;28;20076;-57
2023/07/28 02:18:37;;;;;;;6.65;3.92;;;;;;;12.09;96.52;95490.81;2081210;28;20056;-57
2023/07/28 02:19:38;;;;;;;5.90;4.15;;;;;;;12.07;96.35;95487.47;2090054;28;20040;-57
2023/07/28 02:20:39;;;;;;;9.10;4.80;;;;;;;12.03;96.46;95485.97;2090222;28;20060;-57
2023/07/28 02:21:40;;;;;;;6.72;3.92;;;;;;;12.04;96.50;95482.44;2089828;28;20071;-57
2023/07/28 02:22:42;;;;;;;8.35;4.65;;;;;;;11.90;95.96;95463.31;2089696;28;20044;-57
2023/07/28 02:23:43;;;;;;;5.80;4.07;;;;;;;12.02;96.76;95485.13;2089654;28;20041;-56
2023/07/28 02:24:44;;;;;;;6.32;4.30;;;;;;;12.06;96.48;95483.19;2089890;28;20053;-57
2023/07/28 02:25:45;;;;;;;6.47;4.22;;;;;;;12.06;96.72;95483.19;2090878;28;20477;-57
2023/07/28 02:26:46;;;;;;;6.55;4.43;;;;;;;12.05;96.87;95481.50;2089976;28;20056;-57
2023/07/28 02:27:47;;;;;;;6.97;4.32;;;;;;;12.05;96.56;95482.34;2090272;28;20060;-57
2023/07/28 02:28:48;;;;;;;8.85;4.43;;;;;;;12.09;96.85;95480.41;2089575;28;20558;-57
2023/07/28 02:29:49;;;;;;;6.53;4.43;;;;;;;12.12;96.92;95473.22;2089606;28;20049;-57
2023/07/28 02:30:51;;;;;;;7.70;4.32;;;;;;;12.14;97.29;95467.94;2088992;28;20056;-57
2023/07/28 02:31:52;;;;;;;6.13;4.60;;;;;;;12.09;96.93;95457.81;2088954;28;20059;-57
2023/07/28 02:32:53;;;;;;;7.90;5.00;;;;;;;12.17;97.04;95469.53;2090856;28;20504;-58
2023/07/28 02:33:55;;;;;;;7.03;4.78;;;;;;;12.19;97.06;95472.84;2089939;28;20051;-57
2023/07/28 02:34:56;;;;;;;7.82;4.45;;;;;;;12.16;96.95;95468.66;2089535;28;20430;-57
2023/07/28 02:35:57;;;;;;;7.93;4.35;;;;;;;12.18;96.57;95471.19;2081553;28;20049;-57
2023/07/28 02:36:58;;;;;;;9.05;4.50;;;;;;;12.19;96.07;95478.03;2089486;28;20053;-57
2023/07/28 02:37:59;;;;;;;7.57;4.75;;;;;;;12.17;96.22;95477.34;2089273;28;20066;-57
2023/07/28 02:39:00;;;;;;;6.78;4.20;;;;;;;12.14;95.73;95473.16;2089900;28;20048;-57
2023/07/28 02:40:01;;;;;;;6.00;4.55;;;;;;;12.13;96.47;95481.88;2090229;28;20400;-57
2023/07/28 02:41:07;;;;;;;8.07;5.28;;;;;;;12.09;96.50;95475.19;2089594;28;20049;-57
2023/07/28 02:42:08;;;;;;;8.07;4.22;;;;;;;12.08;96.23;95473.50;2089519;28;20053;-57
2023/07/28 02:43:09;;;;;;;5.72;3.92;;;;;;;12.05;96.05;95479.72;2090478;28;20053;-58
2023/07/28 02:44:10;;;;;;;6.68;4.05;;;;;;;12.03;96.31;95476.41;2089907;28;20053;-58
2023/07/28 02:45:11;;;;;;;8.57;4.50;;;;;;;12.04;95.86;95480.66;2089842;28;20052;-57
2023/07/28 02:46:12;;;;;;;8.80;3.80;;;;;;;12.04;96.06;95472.88;2090170;28;20131;-57
2023/07/28 02:47:14;;;;;;;8.20;4.07;;;;;;;12.06;96.11;95478.00;2090023;28;20060;-57
2023/07/28 02:48:15;;;;;;;9.48;4.32;;;;;;;12.05;95.92;95473.69;2089733;28;20535;-58
2023/07/28 02:49:16;;;;;;;7.05;3.90;;;;;;;12.05;96.22;95478.91;2089641;28;20060;-57
2023/07/28 02:50:17;;;;;;;6.18;4.40;;;;;;;12.09;96.14;95476.03;2089421;28;20075;-57
2023/07/28 02:51:19;;;;;;;6.72;4.43;;;;;;;12.06;96.31;95471.00;2081510;28;20454;-57
2023/07/28 02:52:20;;;;;;;5.80;4.28;;;;;;;12.09;96.15;95475.19;2089586;28;20045;-57
2023/07/28 02:53:21;;;;;;;5.85;3.83;;;;;;;12.10;95.55;95477.69;2089672;28;20041;-57
2023/07/28 02:54:24;;;;;;;5.97;4.40;;;;;;;12.09;95.71;95468.22;2089339;28;20048;-57
2023/07/28 02:55:26;;;;;;;6.60;4.18;;;;;;;12.12;95.57;95475.84;2081236;28;20053;-57
2023/07/28 02:56:27;;;;;;;5.68;4.13;;;;;;;12.10;95.47;95472.47;2073852;28;20054;-57
2023/07/28 02:57:29;;;;;;;8.40;4.85;;;;;;;12.10;95.93;95477.69;2089782;28;20055;-57
2023/07/28 02:58:30;;;;;;;5.43;3.83;;;;;;;12.11;96.18;95483.75;2089836;28;20060;-57
2023/07/28 02:59:31;;;;;;;6.07;4.22;;;;;;;12.05;95.82;95471.91;2089411;28;20048;-57
2023/07/28 03:00:32;;;;;;;7.68;3.90;;;;;;;12.11;95.67;95476.78;2089196;28;20053;-57
2023/07/28 03:01:33;;;;;;;5.45;3.92;;;;;;;12.11;95.46;95474.16;2089463;28;20052;-57
2023/07/28 03:02:35;;;;;;;6.75;3.95;;;;;;;12.17;95.16;95482.53;2089085;28;20542;-57
2023/07/28 03:03:36;;;;;;;5.53;3.95;;;;;;;12.15;95.03;95474.81;2089501;28;20064;-56
2023/07/28 03:04:37;;;;;;;8.98;4.55;;;;;;;12.14;94.78;95476.59;2081558;28;20057;-57
2023/07/28 03:05:56;;;;;;;6.25;4.35;;;;;;;12.19;94.73;95481.50;2089751;28;20075;-56
2023/07/28 03:07:00;;;;;;;7.78;4.30;;;;;;;12.21;93.89;95479.63;2088891;28;20504;-57
2023/07/28 03:08:01;;;;;;;5.85;4.07;;;;;;;12.19;94.90;95475.44;2081244;28;20061;-57
2023/07/28 03:09:02;;;;;;;6.20;4.00;;;;;;;12.21;94.37;95470.97;2081453;28;20053;-56
2023/07/28 03:10:16;;;;;;;8.15;4.40;;;;;;;12.23;95.19;95482.16;2089899;28;20048;-57
2023/07/28 03:11:17;;;;;;;6.93;4.55;;;;;;;12.23;94.64;95476.94;2089406;28;20451;-57
2023/07/28 03:12:19;;;;;;;5.82;3.85;;;;;;;12.24;95.04;95484.66;2081524;28;20467;-56
2023/07/28 03:13:20;;;;;;;6.85;4.10;;;;;;;12.30;94.86;95484.28;2081445;28;20044;-57
2023/07/28 03:14:21;;;;;;;5.95;3.88;;;;;;;12.34;95.30;95483.13;2088654;28;20056;-57
2023/07/28 03:15:22;;;;;;;11.32;4.68;;;;;;;12.39;94.77;95493.28;2081252;28;20049;-57
2023/07/28 03:16:23;;;;;;;6.15;3.85;;;;;;;12.44;93.42;95491.22;2089417;28;20056;-57
2023/07/28 03:17:25;;;;;;;5.72;3.80;;;;;;;12.46;93.75;95484.16;2089442;28;20064;-57
2023/07/28 03:18:26;;;;;;;9.07;4.28;;;;;;;12.50;93.47;95482.19;2089466;28;20045;-57
2023/07/28 03:19:27;;;;;;;7.07;3.97;;;;;;;12.50;93.99;95487.41;2089634;28;20067;-57
2023/07/28 03:20:28;;;;;;;7.10;4.32;;;;;;;12.40;93.90;95466.28;2089444;28;20056;-57
2023/07/28 03:21:30;;;;;;;5.78;3.95;;;;;;;12.49;93.71;95494.38;2089104;28;20449;-57
2023/07/28 03:22:31;;;;;;;7.70;3.78;;;;;;;12.47;93.38;95491.03;2089360;28;20066;-57
2023/07/28 03:23:32;;;;;;;6.50;4.05;;;;;;;12.48;92.82;95497.94;2089355;28;20041;-57
2023/07/28 03:24:33;;;;;;;6.88;4.07;;;;;;;12.53;93.00;95497.63;2097672;28;20048;-57
2023/07/28 03:25:34;;;;;;;6.90;4.10;;;;;;;12.54;92.82;95487.13;2089610;28;20057;-57
2023/07/28 03:26:35;;;;;;;7.25;3.90;;;;;;;12.53;93.13;95487.19;2090228;28;20424;-57
2023/07/28 03:27:37;;;;;;;8.25;4.30;;;;;;;12.51;93.47;95500.34;2091125;28;20059;-57
2023/07/28 03:28:38;;;;;;;7.57;4.05;;;;;;;12.50;93.17;95487.41;2091094;28;20051;-57
2023/07/28 03:29:39;;;;;;;5.25;3.75;;;;;;;12.47;93.50;95491.03;2091958;28;20060;-57
2023/07/28 03:30:41;;;;;;;5.95;3.80;;;;;;;12.49;92.85;95494.38;2090916;28;20055;-56
2023/07/28 03:31:43;;;;;;;6.78;4.05;;;;;;;12.48;93.09;95490.13;2091294;28;20049;-57
2023/07/28 03:32:44;;;;;;;7.63;4.13;;;;;;;12.35;92.98;95479.63;2082865;28;20049;-57
2023/07/28 03:33:45;;;;;;;8.73;4.10;;;;;;;12.43;93.41;95502.59;2082700;28;20068;-57
2023/07/28 03:34:46;;;;;;;6.60;4.20;;;;;;;12.41;92.97;95496.63;2091132;28;20088;-57
2023/07/28 03:35:50;;;;;;;9.27;4.18;;;;;;;12.42;93.72;95502.66;2090173;28;20464;-57
2023/07/28 03:36:53;;;;;;;5.85;4.18;;;;;;;12.38;93.52;95496.00;2083112;28;20530;-56
2023/07/28 03:37:54;;;;;;;8.45;4.50;;;;;;;12.39;93.14;95501.09;2083020;28;20099;-57
2023/07/28 03:38:55;;;;;;;9.93;4.18;;;;;;;12.39;93.06;95514.09;2090863;28;20045;-57
2023/07/28 03:39:57;;;;;;;6.05;4.07;;;;;;;12.27;93.31;95492.28;2083091;28;20056;-57
2023/07/28 03:41:04;;;;;;;7.13;4.28;;;;;;;12.34;93.66;95500.53;2083304;28;20108;-57
2023/07/28 03:42:05;;;;;;;7.00;4.75;;;;;;;12.33;93.69;95504.09;2074536;28;20062;-57
2023/07/28 03:43:06;;;;;;;7.72;4.28;;;;;;;12.34;93.80;95503.13;2074172;28;20054;-57
2023/07/28 03:44:07;;;;;;;7.15;4.32;;;;;;;12.34;93.75;95497.94;2082973;28;20049;-57
2023/07/28 03:45:08;;;;;;;9.20;4.50;;;;;;;12.35;93.35;95499.63;2090641;28;20053;-57
2023/07/28 03:46:09;;;;;;;5.43;4.57;;;;;;;12.34;93.69;95500.53;2090956;28;20473;-57
2023/07/28 03:47:11;;;;;;;6.43;4.15;;;;;;;12.33;93.74;95501.47;2082690;28;20057;-57
2023/07/28 03:48:12;;;;;;;6.40;4.13;;;;;;;12.26;93.59;95493.19;2090900;28;20107;-57
2023/07/28 03:49:13;;;;;;;6.97;4.38;;;;;;;12.35;94.03;95507.44;2091149;28;20060;-57
2023/07/28 03:50:15;;;;;;;6.30;4.05;;;;;;;12.38;93.78;95507.25;2082690;28;20056;-57
2023/07/28 03:51:16;;;;;;;7.00;4.10;;;;;;;12.41;93.95;95507.03;2083031;28;20056;-56
2023/07/28 03:52:17;;;;;;;10.60;4.63;;;;;;;12.44;94.03;95500.81;2082598;28;20060;-57
2023/07/28 03:53:18;;;;;;;7.15;4.68;;;;;;;12.49;94.05;95510.00;2090862;28;20060;-56
2023/07/28 03:54:19;;;;;;;6.80;4.20;;;;;;;12.52;94.06;95506.38;2090542;28;20057;-57
2023/07/28 03:55:20;;;;;;;7.60;4.32;;;;;;;12.54;93.90;95513.16;2090586;28;20056;-57
2023/07/28 03:56:21;;;;;;;6.03;4.00;;;;;;;12.58;94.17;95513.78;2090934;28;20432;-57
2023/07/28 03:57:22;;;;;;;5.88;4.22;;;;;;;12.61;94.20;95518.81;2091485;28;20057;-57
2023/07/28 03:58:25;;;;;;;7.75;4.38;;;;;;;12.52;94.18;95494.19;2091159;28;20061;-57
2023/07/28 03:59:26;;;;;;;7.55;4.68;;;;;;;12.62;93.72;95509.25;2091480;28;20052;-57
2023/07/28 04:00:27;;;;;;;8.43;4.22;;;;;;;12.68;93.30;95514.91;2090622;28;20505;-57
2023/07/28 04:01:28;;;;;;;5.63;4.38;;;;;;;12.61;93.79;95503.19;2090219;28;20053;-57
2023/07/28 04:02:29;;;;;;;8.65;4.35;;;;;;;12.70;93.46;95510.44;2090290;28;20049;-57
2023/07/28 04:03:30;;;;;;;6.68;4.15;;;;;;;12.73;92.82;95518.03;2083247;28;20497;-57
2023/07/28 04:04:31;;;;;;;8.48;4.30;;;;;;;12.76;93.08;95517.03;2091089;28;20061;-57
2023/07/28 04:05:32;;;;;;;8.55;4.10;;;;;;;12.79;92.88;95524.63;2090771;28;20049;-57
2023/07/28 04:06:46;;;;;;;6.00;4.07;;;;;;;12.80;93.20;95510.66;2082764;28;20049;-57
2023/07/28 04:07:47;;;;;;;8.73;4.20;;;;;;;12.81;92.98;95514.97;2090507;28;20049;-57
2023/07/28 04:08:48;;;;;;;6.15;4.20;;;;;;;12.79;92.77;95507.22;2090858;28;20457;-57
2023/07/28 04:09:49;;;;;;;8.50;4.47;;;;;;;12.80;92.69;95506.31;2090754;28;20057;-57
2023/07/28 04:10:50;;;;;;;6.65;4.30;;;;;;;12.80;93.14;95508.06;2090746;28;20049;-57
2023/07/28 04:11:51;;;;;;;7.22;4.63;;;;;;;12.80;92.53;95511.53;2090834;28;20049;-57
2023/07/28 04:12:52;;;;;;;6.25;4.18;;;;;;;12.79;92.32;95516.81;2090896;28;20045;-57
2023/07/28 04:13:53;;;;;;;8.60;4.63;;;;;;;12.83;92.20;95518.31;2090717;28;20393;-57
2023/07/28 04:14:54;;;;;;;8.50;4.35;;;;;;;12.82;92.43;95521.84;2090514;28;20077;-57
2023/07/28 04:15:56;;;;;;;7.28;4.68;;;;;;;12.81;92.54;95512.34;2090229;28;20045;-57
2023/07/28 04:16:57;;;;;;;11.05;4.72;;;;;;;12.87;92.23;95518.94;2090661;28;20412;-57
2023/07/28 04:17:58;;;;;;;9.55;4.55;;;;;;;12.87;91.68;95511.94;2082777;28;20061;-57
2023/07/28 04:18:59;;;;;;;6.93;4.28;;;;;;;12.88;91.71;95516.22;2082560;28;20053;-57
2023/07/28 04:20:01;;;;;;;7.70;4.30;;;;;;;12.92;91.62;95512.50;2082475;28;20053;-57
2023/07/28 04:21:02;;;;;;;8.15;4.07;;;;;;;12.94;91.63;95521.06;2090524;28;20052;-57
2023/07/28 04:22:03;;;;;;;7.32;4.18;;;;;;;12.99;91.58;95511.19;2089658;28;20085;-57
2023/07/28 04:23:05;;;;;;;9.18;4.63;;;;;;;13.02;91.33;95508.38;2090081;28;20123;-57
2023/07/28 04:24:11;;;;;;;8.77;4.72;;;;;;;13.03;90.93;95504.00;2090836;28;20052;-58
2023/07/28 04:25:18;;;;;;;9.20;3.75;;;;;;;12.98;90.71;95504.28;2083173;28;20060;-57
2023/07/28 04:26:23;;;;;;;9.32;4.18;;;;;;;13.09;90.45;95510.56;2082773;28;20057;-57
2023/07/28 04:27:29;;;;;;;7.07;4.32;;;;;;;13.11;90.46;95513.91;2089854;28;20524;-57
2023/07/28 04:28:34;;;;;;;8.02;4.25;;;;;;;13.11;90.00;95516.53;2082333;28;20056;-57
2023/07/28 04:29:37;;;;;;;8.50;4.75;;;;;;;13.13;89.88;95517.28;2082339;28;20049;-57
2023/07/28 04:30:41;;;;;;;7.60;4.07;;;;;;;13.14;90.23;95519.75;2083093;28;20049;-57
2023/07/28 04:31:46;;;;;;;6.85;4.05;;;;;;;13.15;90.42;95518.84;2082777;28;20041;-57
2023/07/28 04:32:50;;;;;;;8.50;4.20;;;;;;;13.16;90.23;95517.91;2082302;28;20053;-57
2023/07/28 04:33:54;;;;;;;6.43;3.75;;;;;;;13.18;90.14;95512.59;2082094;28;20046;-57
2023/07/28 04:34:56;;;;;;;5.45;3.63;;;;;;;13.18;89.99;95518.66;2082154;28;20076;-57
2023/07/28 04:36:16;;;;;;;6.90;4.03;;;;;;;13.22;90.28;95519.28;2085101;28;20057;-57
2023/07/28 04:37:17;;;;;;;6.93;3.88;;;;;;;13.22;90.05;95519.28;2090532;28;20061;-57
2023/07/28 04:38:31;;;;;;;8.57;3.80;;;;;;;13.29;90.28;95525.78;2089260;28;20456;-57
2023/07/28 04:39:36;;;;;;;7.88;4.30;;;;;;;13.33;90.17;95522.03;2090284;28;20051;-57
2023/07/28 04:40:37;;;;;;;5.70;3.97;;;;;;;13.35;89.84;95516.72;2081946;28;20064;-57
2023/07/28 04:41:39;;;;;;;6.60;3.95;;;;;;;13.40;89.97;95518.09;2082310;28;20056;-57
2023/07/28 04:42:40;;;;;;;8.15;3.90;;;;;;;13.43;89.94;95517.06;2091182;28;20408;-57
2023/07/28 04:43:42;;;;;;;7.50;4.40;;;;;;;13.50;90.34;95522.69;2090466;28;20045;-57
2023/07/28 04:44:43;;;;;;;8.93;3.90;;;;;;;13.54;90.51;95524.19;2090509;28;20049;-57
2023/07/28 04:45:44;;;;;;;8.20;4.07;;;;;;;13.58;89.90;95520.41;2090790;28;20049;-57
2023/07/28 04:46:50;;;;;;;5.50;4.20;;;;;;;13.65;90.37;95519.06;2082941;28;20042;-58
2023/07/28 04:47:52;;;;;;;6.13;3.97;;;;;;;13.71;89.84;95526.47;2081621;28;20229;-57
2023/07/28 04:48:54;;;;;;;6.47;3.72;;;;;;;13.78;89.62;95526.91;2090482;28;20057;-57
2023/07/28 04:50:14;;;;;;;6.25;3.92;;;;;;;13.86;89.84;95529.84;2090428;28;20079;-57
2023/07/28 04:51:38;;;;;;;6.32;3.78;;;;;;;13.93;89.54;95531.13;2091041;28;20393;-57
2023/07/28 04:53:06;;;;;;;7.35;4.18;;;;;;;13.97;88.93;95529.94;2090144;28;20053;-57
2023/07/28 04:54:07;;;;;;;5.32;3.60;;;;;;;14.01;89.14;95526.19;2090357;28;20538;-57